Skip Navigation

Christman Field Latest Observations

Switch to metric unitsOther observation timesWeekly graphs

Date Time
MST
Temp
°F
RH
%
DewPt
°F
Wind
mph
Dir
°
Gust
mph
Dir
°
Press
in Hg
Solar
W/m^2
Prec
in
2022-08-18 16:50 87.9 18.2 39.5 7.6 12 9.7 33 24.936 318.6 0.00
2022-08-18 16:45 88.3 19.2 41.1 5.2 47 7.6 47 24.936 333.1 0.00
2022-08-18 16:40 88.1 18.8 40.3 7.4 46 10.0 35 24.938 347.7 0.00
2022-08-18 16:35 88.0 18.4 39.7 8.2 19 10.3 43 24.939 362.2 0.00
2022-08-18 16:30 88.7 18.2 40.0 7.0 50 11.6 45 24.940 378.2 0.00
2022-08-18 16:25 88.3 18.9 40.8 3.6 354 7.6 84 24.941 394.4 0.00
2022-08-18 16:20 88.4 17.9 39.5 7.1 66 10.0 57 24.941 408.0 0.00
2022-08-18 16:15 88.4 17.7 39.2 5.8 46 8.2 28 24.941 421.3 0.00
2022-08-18 16:10 88.5 17.6 39.1 7.1 69 11.4 17 24.941 434.6 0.00
2022-08-18 16:05 88.5 17.7 39.2 5.4 63 10.6 43 24.940 448.4 0.00
2022-08-18 16:00 88.6 17.6 39.2 10.0 47 13.5 15 24.942 462.3 0.00
2022-08-18 15:55 88.3 18.9 40.7 6.3 68 10.6 66 24.941 476.9 0.00
2022-08-18 15:50 88.6 17.3 38.7 6.1 129 12.0 112 24.941 489.8 0.00
2022-08-18 15:45 88.6 17.2 38.5 3.7 115 6.7 66 24.940 503.2 0.00
2022-08-18 15:40 88.0 17.8 38.9 4.2 101 9.4 59 24.943 517.5 0.00
2022-08-18 15:35 88.3 17.4 38.6 7.9 26 12.9 45 24.946 529.6 0.00
2022-08-18 15:30 89.0 18.4 40.6 7.2 51 11.1 43 24.948 543.6 0.00
2022-08-18 15:25 89.2 16.6 38.1 5.5 53 8.6 50 24.947 557.1 0.00
2022-08-18 15:20 88.8 17.7 39.4 5.2 352 8.4 345 24.946 571.2 0.00
2022-08-18 15:15 88.5 17.2 38.5 5.2 35 8.9 68 24.950 580.4 0.00
2022-08-18 15:10 88.6 17.2 38.6 8.2 80 12.1 89 24.952 592.8 0.00
2022-08-18 15:05 88.4 17.6 38.9 5.6 99 9.5 107 24.957 606.4 0.00
2022-08-18 15:00 88.9 17.0 38.5 6.3 49 13.3 62 24.964 619.6 0.00
2022-08-18 14:55 88.8 16.9 38.3 2.8 65 6.8 62 24.965 634.3 0.00
2022-08-18 14:50 88.4 16.9 37.9 8.4 60 10.7 52 24.966 645.7 0.00
2022-08-18 14:45 87.9 17.9 39.0 7.7 42 12.3 87 24.966 657.6 0.00
2022-08-18 14:40 88.3 17.8 39.2 4.7 88 10.6 71 24.969 669.9 0.00
2022-08-18 14:35 88.6 17.5 39.0 7.7 122 13.0 69 24.972 680.5 0.00
2022-08-18 14:30 88.6 17.3 38.8 8.1 58 11.5 39 24.973 687.9 0.00
2022-08-18 14:25 88.2 18.9 40.6 7.4 42 13.2 36 24.974 699.0 0.00